KVPS

Northwest Florida Regional Airport/Eglin Air Force Base

Airport
ICAO code
KVPS
Summary
ICAO Region
NAM
ICAO Territory
Location

Valparaiso, Florida,

Coordinates
30° 29' 4" N , 86° 31' 48" W
KCC
Metar
KVPS 151455Z AUTO 09006KT 10SM CLR 32/22 A2997 RMK AO2 SLP155 T03190220 51008 $

Description

Northwest Florida Regional Airport is a joint use civil/military airport located within Eglin Air Force Base, near Valparaiso and Fort Walton Beach in Okaloosa County, Florida. Civil use is restricted to commercial traffic only.

Climatology

Humid “subtropical” climate (Köppen climate classification Cfa) - characterized by hot, humid summers and cool winters. Significant amounts of precipitation occur in all seasons in most areas.

Runways

Designator Length Width Surface Rops
1/19 3052 91 ASP Yes/Yes
12/30 3659 91 ASP Yes/Yes

Airport map

Aerial View

SKYbrary Partners:

Safety knowledge contributed by: